Time;durP1;ratioP1;P1;durP2;ratioP2;P2;SDS_P1;SDS_P2;PMS_P1;PMS_P2;Temp;Humidity;BMP_temperature;BMP_pressure;BME280_temperature;BME280_humidity;BME280_pressure;Samples;Min_cycle;Max_cycle;Signal;HPM_P1;HPM_P2
2022/06/03 00:03:11;;;;;;;8.90;7.68;;;22.20;99.90;;;;;;5034056;28;20026;-58
2022/06/03 00:05:48;;;;;;;7.97;7.18;;;21.90;99.90;;;;;;5000623;28;20057;-59
2022/06/03 00:08:22;;;;;;;7.72;5.93;;;21.80;99.90;;;;;;5012488;28;20034;-60
2022/06/03 00:10:59;;;;;;;6.95;6.15;;;21.90;99.90;;;;;;5012283;28;20056;-60
2022/06/03 00:13:46;;;;;;;6.57;5.97;;;21.90;99.90;;;;;;5008112;28;20048;-60
2022/06/03 00:16:58;;;;;;;6.57;5.82;;;22.00;99.90;;;;;;5011327;28;20041;-60
2022/06/03 00:19:42;;;;;;;8.75;6.10;;;22.00;99.90;;;;;;5012714;28;20030;-60
2022/06/03 00:22:48;;;;;;;8.05;5.75;;;21.80;99.90;;;;;;5007592;28;20069;-59
2022/06/03 00:25:20;;;;;;;5.57;4.60;;;21.90;99.90;;;;;;4915302;29;20051;-60
2022/06/03 00:28:00;;;;;;;6.75;5.68;;;21.90;99.90;;;;;;4915396;29;20047;-60
2022/06/03 00:30:37;;;;;;;5.50;5.00;;;21.80;99.90;;;;;;4914784;29;20514;-60
2022/06/03 00:33:34;;;;;;;5.90;5.00;;;21.80;99.90;;;;;;4915431;29;20415;-60
2022/06/03 00:36:17;;;;;;;7.05;4.65;;;21.80;99.90;;;;;;4930060;29;20043;-59
2022/06/03 00:39:10;;;;;;;5.03;4.57;;;21.80;99.90;;;;;;4953126;29;20055;-59
2022/06/03 00:42:01;;;;;;;5.38;4.47;;;21.80;99.90;;;;;;4952393;28;20074;-59
2022/06/03 00:44:41;;;;;;;5.07;4.50;;;21.60;99.90;;;;;;4902645;29;20135;-59
2022/06/03 00:47:23;;;;;;;4.57;3.88;;;21.60;99.90;;;;;;4899964;29;20165;-60
2022/06/03 00:50:18;;;;;;;5.43;3.88;;;21.40;99.90;;;;;;4915198;29;20378;-59
2022/06/03 00:53:17;;;;;;;4.10;3.70;;;21.30;99.90;;;;;;4915647;29;20044;-59
2022/06/03 00:55:51;;;;;;;4.10;3.80;;;21.20;99.90;;;;;;4915711;29;20533;-59
2022/06/03 00:58:31;;;;;;;3.80;3.50;;;21.10;99.90;;;;;;4929573;28;20100;-59
2022/06/03 01:01:15;;;;;;;5.43;3.72;;;21.30;99.90;;;;;;5010773;28;20030;-59
2022/06/03 01:03:56;;;;;;;4.35;3.97;;;21.30;99.90;;;;;;5011434;28;20056;-59
2022/06/03 01:06:23;;;;;;;5.05;3.65;;;21.40;99.90;;;;;;5011589;28;20046;-59
2022/06/03 01:09:13;;;;;;;5.60;4.90;;;21.20;99.90;;;;;;5010972;28;20034;-59
2022/06/03 01:11:53;;;;;;;4.10;3.70;;;21.40;99.90;;;;;;5010979;28;20426;-59
2022/06/03 01:14:31;;;;;;;5.22;4.63;;;21.20;99.90;;;;;;4996468;28;20038;-60
2022/06/03 01:17:09;;;;;;;4.50;3.40;;;21.30;99.90;;;;;;5011124;28;20085;-59
2022/06/03 01:19:44;;;;;;;3.83;3.53;;;21.30;99.90;;;;;;5012054;28;20057;-59
2022/06/03 01:22:40;;;;;;;3.60;3.30;;;21.00;99.90;;;;;;5026360;28;20099;-59
2022/06/03 01:25:26;;;;;;;4.28;3.22;;;20.90;99.90;;;;;;5032936;28;20035;-59
2022/06/03 01:28:21;;;;;;;3.83;3.40;;;21.00;99.90;;;;;;5032157;28;20079;-59
2022/06/03 01:31:11;;;;;;;5.57;3.88;;;20.90;99.90;;;;;;5032513;28;20497;-59
2022/06/03 01:33:43;;;;;;;3.92;3.30;;;20.80;99.90;;;;;;5032169;28;20045;-59
2022/06/03 01:36:47;;;;;;;5.63;3.03;;;20.80;99.90;;;;;;5032314;28;20021;-59
2022/06/03 01:39:12;;;;;;;3.73;3.33;;;20.70;99.90;;;;;;5024276;28;20049;-59
2022/06/03 01:42:15;;;;;;;3.95;3.42;;;20.40;99.90;;;;;;5027620;28;20807;-59
2022/06/03 01:45:02;;;;;;;3.67;3.30;;;20.20;99.90;;;;;;5027450;28;20086;-59
2022/06/03 01:47:49;;;;;;;3.72;3.38;;;20.10;99.90;;;;;;5027387;28;20036;-59
2022/06/03 01:50:48;;;;;;;4.07;3.30;;;20.20;99.90;;;;;;5027454;28;20165;-59
2022/06/03 01:53:17;;;;;;;5.65;3.67;;;20.10;99.90;;;;;;5027383;28;20160;-59
2022/06/03 01:55:49;;;;;;;4.13;3.63;;;20.00;99.90;;;;;;5014269;28;20088;-59
2022/06/03 01:58:32;;;;;;;4.32;3.53;;;19.90;99.90;;;;;;5025904;28;20549;-59
2022/06/03 02:01:18;;;;;;;3.45;3.13;;;19.90;99.90;;;;;;5016853;28;20045;-59
2022/06/03 02:03:47;;;;;;;4.40;3.60;;;19.90;99.90;;;;;;5016209;28;20621;-59
2022/06/03 02:06:38;;;;;;;4.88;3.88;;;20.00;99.90;;;;;;5015773;28;20101;-59
2022/06/03 02:09:15;;;;;;;4.38;4.00;;;20.10;99.90;;;;;;4924834;29;20043;-60
2022/06/03 02:11:57;;;;;;;4.82;3.60;;;20.50;99.90;;;;;;4932324;29;20086;-59
2022/06/03 02:14:41;;;;;;;4.20;3.80;;;20.40;99.90;;;;;;4932170;29;20040;-59
2022/06/03 02:17:13;;;;;;;4.65;3.60;;;20.30;99.90;;;;;;4917244;29;20027;-59
2022/06/03 02:20:00;;;;;;;4.78;3.80;;;20.40;99.90;;;;;;4929750;29;20044;-59
2022/06/03 02:22:52;;;;;;;4.13;3.70;;;20.60;99.90;;;;;;4933341;29;20362;-59
2022/06/03 02:25:55;;;;;;;5.35;3.70;;;20.60;99.90;;;;;;4902354;29;20036;-59
2022/06/03 02:28:39;;;;;;;5.47;4.35;;;20.70;99.90;;;;;;4918532;29;20532;-59
2022/06/03 02:31:31;;;;;;;6.07;4.15;;;20.40;99.90;;;;;;4917969;29;20096;-59
2022/06/03 02:34:18;;;;;;;4.53;4.13;;;20.20;99.90;;;;;;4922238;29;20039;-59
2022/06/03 02:37:01;;;;;;;5.78;4.20;;;20.20;99.90;;;;;;4923907;29;20532;-60
2022/06/03 02:39:42;;;;;;;4.30;3.90;;;19.80;99.90;;;;;;4923401;29;20133;-59
2022/06/03 02:42:52;;;;;;;3.83;3.53;;;19.70;99.90;;;;;;4923495;29;20362;-59
2022/06/03 02:45:52;;;;;;;5.93;4.43;;;19.70;99.90;;;;;;4942984;28;20054;-59
2022/06/03 02:48:56;;;;;;;5.70;4.55;;;19.70;99.90;;;;;;5018047;28;20048;-59
2022/06/03 02:51:31;;;;;;;5.15;4.10;;;19.40;99.90;;;;;;5015762;28;20045;-59
2022/06/03 02:54:23;;;;;;;4.70;4.32;;;19.30;99.90;;;;;;5017812;28;20148;-59
2022/06/03 02:56:57;;;;;;;4.50;4.10;;;19.40;99.90;;;;;;5013924;28;20037;-59
2022/06/03 02:59:52;;;;;;;4.50;4.10;;;19.40;99.90;;;;;;5028872;28;20041;-59
2022/06/03 03:02:56;;;;;;;4.88;4.28;;;19.40;99.90;;;;;;5015863;28;20102;-59
2022/06/03 03:06:03;;;;;;;5.45;4.90;;;19.40;99.90;;;;;;5016869;28;20406;-59
2022/06/03 03:09:01;;;;;;;6.05;5.50;;;19.40;99.90;;;;;;4996168;28;20072;-59
2022/06/03 03:11:45;;;;;;;6.20;5.70;;;19.30;99.90;;;;;;4995595;28;20038;-59
2022/06/03 03:14:49;;;;;;;4.75;4.35;;;19.40;99.90;;;;;;5009215;28;20029;-59
2022/06/03 03:17:39;;;;;;;6.30;5.20;;;19.80;99.90;;;;;;4912781;29;20039;-58
2022/06/03 03:20:23;;;;;;;6.07;5.47;;;19.80;99.90;;;;;;4913060;29;20462;-59
2022/06/03 03:22:51;;;;;;;6.40;5.78;;;19.60;99.90;;;;;;4912504;29;20040;-59
2022/06/03 03:25:32;;;;;;;6.80;6.10;;;19.60;99.90;;;;;;4912942;29;20237;-59
2022/06/03 03:28:29;;;;;;;6.35;5.15;;;19.40;99.90;;;;;;4912615;29;20095;-59
2022/06/03 03:31:13;;;;;;;5.03;4.60;;;19.70;99.90;;;;;;4913024;29;20042;-59
2022/06/03 03:34:03;;;;;;;5.70;4.25;;;19.80;99.90;;;;;;4913032;29;20110;-59
2022/06/03 03:36:59;;;;;;;4.88;4.47;;;19.70;99.90;;;;;;4912503;29;20517;-59
2022/06/03 03:39:27;;;;;;;5.40;4.90;;;19.90;99.90;;;;;;4912056;29;20056;-59
2022/06/03 03:42:39;;;;;;;5.97;4.80;;;19.60;99.90;;;;;;4912586;29;20382;-59
2022/06/03 03:45:11;;;;;;;6.07;5.25;;;19.50;99.90;;;;;;4927928;29;20472;-59
2022/06/03 03:48:03;;;;;;;6.05;5.28;;;19.50;99.90;;;;;;4951167;29;20047;-59
2022/06/03 03:51:07;;;;;;;5.45;4.95;;;19.20;99.90;;;;;;4950800;29;20042;-59
2022/06/03 03:53:54;;;;;;;6.68;5.90;;;19.20;99.90;;;;;;4988370;28;20044;-59
2022/06/03 03:56:35;;;;;;;6.70;5.88;;;19.00;99.90;;;;;;5016816;28;20071;-59
2022/06/03 03:59:35;;;;;;;6.05;5.10;;;18.90;99.90;;;;;;5030530;28;20056;-59
2022/06/03 04:02:01;;;;;;;5.95;5.45;;;18.90;99.90;;;;;;5030424;28;20041;-59
2022/06/03 04:04:47;;;;;;;5.57;5.00;;;18.80;99.90;;;;;;5031015;28;20413;-59
2022/06/03 04:07:35;;;;;;;5.40;4.88;;;19.30;99.90;;;;;;5030455;28;20113;-59
2022/06/03 04:10:37;;;;;;;6.72;5.10;;;18.90;99.90;;;;;;5030346;28;20033;-59
2022/06/03 04:13:44;;;;;;;6.35;5.10;;;18.80;99.90;;;;;;5030456;28;20094;-59
2022/06/03 04:16:46;;;;;;;6.10;5.30;;;18.60;99.90;;;;;;5031059;28;20123;-59
2022/06/03 04:19:59;;;;;;;5.57;5.03;;;18.60;99.90;;;;;;5033400;28;20039;-59
2022/06/03 04:22:37;;;;;;;5.53;5.03;;;18.70;99.90;;;;;;5017912;28;20026;-59
2022/06/03 04:25:14;;;;;;;5.40;5.00;;;18.70;99.90;;;;;;5027309;28;20045;-59
2022/06/03 04:28:00;;;;;;;6.70;5.20;;;18.60;99.90;;;;;;5027536;28;20072;-59
2022/06/03 04:30:47;;;;;;;5.70;5.20;;;18.60;99.90;;;;;;5027006;28;20042;-59
2022/06/03 04:33:50;;;;;;;5.55;4.95;;;18.50;99.90;;;;;;5026804;28;20537;-59
2022/06/03 04:36:44;;;;;;;6.95;5.30;;;18.70;99.90;;;;;;5025281;28;20065;-59
2022/06/03 04:39:46;;;;;;;7.85;5.38;;;18.90;99.90;;;;;;5025706;28;20059;-58
2022/06/03 04:42:15;;;;;;;4.78;4.38;;;18.80;99.90;;;;;;5025829;28;20079;-57
2022/06/03 04:45:17;;;;;;;4.45;4.05;;;19.60;99.90;;;;;;5026657;28;20038;-58
2022/06/03 04:48:04;;;;;;;4.90;4.50;;;20.40;99.90;;;;;;5015670;28;20060;-59
2022/06/03 04:50:39;;;;;;;5.43;4.93;;;20.30;99.90;;;;;;5025286;28;20568;-58
2022/06/03 04:53:04;;;;;;;6.60;4.47;;;20.20;99.90;;;;;;5020766;28;20534;-57
2022/06/03 04:55:53;;;;;;;5.47;4.82;;;20.10;99.90;;;;;;5021381;28;20034;-56
2022/06/03 04:59:01;;;;;;;8.07;4.80;;;20.70;99.90;;;;;;5032346;28;20052;-57
2022/06/03 05:01:42;;;;;;;5.50;4.38;;;20.60;99.90;;;;;;5033351;28;20033;-57
2022/06/03 05:04:20;;;;;;;6.75;5.20;;;20.30;99.90;;;;;;5032574;28;20079;-58
2022/06/03 05:06:51;;;;;;;4.55;4.15;;;20.60;99.90;;;;;;5031026;28;20033;-57
2022/06/03 05:09:35;;;;;;;5.18;4.70;;;20.90;99.90;;;;;;5032466;28;20025;-58
2022/06/03 05:12:04;;;;;;;6.90;5.72;;;21.40;99.90;;;;;;5030016;28;20044;-57
2022/06/03 05:15:03;;;;;;;5.60;5.10;;;21.10;99.90;;;;;;5032672;28;20029;-55
2022/06/03 05:18:01;;;;;;;6.28;5.13;;;21.30;99.90;;;;;;5030857;28;20037;-57
2022/06/03 05:20:40;;;;;;;7.13;5.28;;;21.40;99.90;;;;;;5025424;28;20033;-57
2022/06/03 05:23:24;;;;;;;11.20;6.15;;;21.80;99.90;;;;;;5032214;28;20033;-56
2022/06/03 05:26:17;;;;;;;6.93;5.30;;;21.90;99.90;;;;;;5030806;28;20025;-58
2022/06/03 05:29:04;;;;;;;13.85;6.28;;;22.00;99.90;;;;;;5027822;28;20086;-58
2022/06/03 05:31:45;;;;;;;7.88;5.80;;;22.20;99.90;;;;;;5032773;28;20171;-59
2022/06/03 05:34:49;;;;;;;10.05;5.28;;;22.50;99.90;;;;;;5031453;28;20502;-58
2022/06/03 05:38:04;;;;;;;8.93;5.00;;;22.60;99.90;;;;;;5049168;28;20037;-57
2022/06/03 05:40:44;;;;;;;4.35;3.95;;;22.80;99.90;;;;;;4971106;28;20046;-59
2022/06/03 05:43:26;;;;;;;9.30;4.82;;;22.80;99.90;;;;;;4971887;28;20047;-59
2022/06/03 05:46:23;;;;;;;5.68;4.45;;;23.30;99.90;;;;;;4970332;28;20086;-58
2022/06/03 05:49:13;;;;;;;4.78;4.28;;;23.40;99.90;;;;;;4970072;28;20050;-59
2022/06/03 05:51:45;;;;;;;4.55;4.20;;;23.70;99.90;;;;;;4969818;28;20125;-58
2022/06/03 05:54:51;;;;;;;5.10;4.10;;;24.20;99.90;;;;;;4969948;28;20035;-58
2022/06/03 05:57:38;;;;;;;4.82;3.78;;;24.20;99.90;;;;;;4969979;28;20034;-59
2022/06/03 06:00:26;;;;;;;4.82;3.47;;;25.10;99.90;;;;;;4969932;28;20085;-59
2022/06/03 06:03:10;;;;;;;4.18;3.55;;;25.10;99.90;;;;;;4970077;28;20182;-58
2022/06/03 06:05:35;;;;;;;5.68;3.08;;;25.70;99.90;;;;;;4970488;28;20041;-59
2022/06/03 06:08:14;;;;;;;7.47;2.97;;;26.20;99.90;;;;;;4969950;28;20035;-59
2022/06/03 06:11:03;;;;;;;3.30;3.00;;;26.60;99.90;;;;;;4970456;28;20109;-59
2022/06/03 06:13:47;;;;;;;4.13;3.22;;;26.30;99.90;;;;;;4959073;28;20059;-59
2022/06/03 06:16:31;;;;;;;;;;;26.70;99.90;;;;;;5031722;28;20037;-59
2022/06/03 06:19:27;;;;;;;4.05;3.10;;;27.10;99.90;;;;;;5031458;28;19956;-58
2022/06/03 06:21:58;;;;;;;5.65;3.20;;;27.30;99.90;;;;;;5031544;28;20082;-59
2022/06/03 06:24:44;;;;;;;6.50;3.33;;;27.40;99.90;;;;;;5031694;28;20160;-59
2022/06/03 06:27:43;;;;;;;6.13;3.53;;;27.30;99.90;;;;;;5031571;28;20013;-59
2022/06/03 06:30:18;;;;;;;4.00;3.30;;;27.20;99.90;;;;;;5031253;28;20021;-58
2022/06/03 06:33:21;;;;;;;4.35;3.20;;;27.00;99.90;;;;;;5031405;28;20071;-58
2022/06/03 06:36:41;;;;;;;6.25;3.78;;;26.20;99.90;;;;;;5031922;28;20544;-58
2022/06/03 06:39:27;;;;;;;5.32;4.45;;;26.40;99.90;;;;;;5021982;28;20045;-58
2022/06/03 06:42:26;;;;;;;8.00;3.90;;;25.90;99.90;;;;;;5015458;28;20033;-59
2022/06/03 06:45:13;;;;;;;10.10;3.70;;;25.10;99.90;;;;;;5015225;28;20394;-59
2022/06/03 06:48:02;;;;;;;4.63;3.70;;;24.80;99.90;;;;;;5014664;28;20398;-59
2022/06/03 06:50:38;;;;;;;4.03;3.42;;;24.20;99.90;;;;;;5026363;28;20033;-59
2022/06/03 06:53:17;;;;;;;6.60;3.15;;;24.60;99.90;;;;;;5027454;28;20128;-59
2022/06/03 06:56:02;;;;;;;7.13;3.10;;;23.90;99.90;;;;;;5029059;28;20486;-58
2022/06/03 06:58:50;;;;;;;5.45;3.20;;;24.40;99.90;;;;;;5014235;28;20068;-58
2022/06/03 07:01:44;;;;;;;4.07;3.17;;;24.50;99.90;;;;;;5016145;28;20037;-59
2022/06/03 07:04:16;;;;;;;5.53;3.42;;;24.10;99.90;;;;;;5011153;28;20545;-59
2022/06/03 07:06:46;;;;;;;3.70;3.05;;;23.90;99.90;;;;;;5020580;28;20088;-59
2022/06/03 07:09:27;;;;;;;3.20;2.90;;;24.30;99.90;;;;;;5023429;28;20109;-59
2022/06/03 07:12:18;;;;;;;4.25;3.08;;;24.50;99.90;;;;;;5023280;28;20514;-59
2022/06/03 07:15:06;;;;;;;4.40;2.80;;;24.80;99.90;;;;;;5015315;28;20449;-59
2022/06/03 07:21:15;;;;;;;5.15;2.70;;;25.70;99.90;;;;;;5018698;28;20084;-59
2022/06/03 07:23:53;;;;;;;3.95;2.63;;;26.40;99.90;;;;;;4994260;28;20441;-58
2022/06/03 07:26:29;;;;;;;3.65;3.30;;;26.30;99.90;;;;;;5009159;28;20096;-58
2022/06/03 07:29:18;;;;;;;3.97;3.10;;;26.10;99.90;;;;;;4993281;28;20109;-59
2022/06/03 07:32:17;;;;;;;5.55;3.17;;;26.00;99.90;;;;;;5009421;28;20064;-59
2022/06/03 07:34:52;;;;;;;5.72;3.42;;;26.00;99.90;;;;;;5006159;28;20558;-58
2022/06/03 07:37:25;;;;;;;6.35;3.20;;;26.00;99.90;;;;;;5004872;28;20042;-58
2022/06/03 07:40:15;;;;;;;4.10;3.42;;;26.00;99.90;;;;;;5004374;28;20116;-58
2022/06/03 07:42:49;;;;;;;4.35;3.50;;;25.80;99.90;;;;;;5004355;28;20539;-58
2022/06/03 07:45:32;;;;;;;5.45;3.85;;;25.70;99.90;;;;;;5004488;28;20038;-59
2022/06/03 07:47:59;;;;;;;4.63;3.10;;;25.50;99.90;;;;;;5004608;28;20034;-58
2022/06/03 07:50:28;;;;;;;5.43;3.20;;;25.40;99.90;;;;;;5008099;28;20030;-58
2022/06/03 07:53:26;;;;;;;6.68;3.70;;;25.50;99.90;;;;;;5010647;28;20045;-59
2022/06/03 07:55:54;;;;;;;6.35;3.83;;;25.60;99.90;;;;;;4952183;29;20090;-59
2022/06/03 07:58:22;;;;;;;5.18;3.88;;;26.40;99.90;;;;;;4935998;29;20434;-59
2022/06/03 08:00:48;;;;;;;5.50;3.20;;;26.60;99.90;;;;;;4942754;29;20472;-59
2022/06/03 08:03:15;;;;;;;4.25;3.47;;;26.80;99.90;;;;;;4943742;29;20046;-59
2022/06/03 08:05:46;;;;;;;4.57;3.50;;;27.60;99.90;;;;;;4942893;29;20055;-58
2022/06/03 08:11:05;;;;;;;4.70;3.58;;;26.50;99.90;;;;;;4952988;29;20086;-59
2022/06/03 08:13:39;;;;;;;4.60;3.70;;;26.70;99.90;;;;;;4940284;29;20139;-58
2022/06/03 08:16:11;;;;;;;5.07;3.75;;;26.90;99.90;;;;;;4949523;29;20488;-58
2022/06/03 08:18:40;;;;;;;6.07;3.60;;;26.90;99.90;;;;;;4949364;29;20031;-58
2022/06/03 08:21:41;;;;;;;6.13;3.70;;;26.50;99.90;;;;;;4949477;28;20468;-58
2022/06/03 08:24:17;;;;;;;5.22;3.67;;;26.50;99.90;;;;;;4949371;28;20114;-58
2022/06/03 08:26:46;;;;;;;6.40;3.72;;;26.40;99.90;;;;;;4949631;28;20449;-58
2022/06/03 08:29:27;;;;;;;8.10;3.50;;;26.50;99.90;;;;;;4952662;28;20031;-58
2022/06/03 08:31:56;;;;;;;6.07;3.70;;;26.50;99.90;;;;;;4966512;28;20396;-58
2022/06/03 08:34:28;;;;;;;5.15;3.55;;;26.30;99.90;;;;;;5032834;28;20025;-58
2022/06/03 08:36:54;;;;;;;6.22;3.90;;;26.20;99.90;;;;;;5033699;28;20426;-58
2022/06/03 08:39:24;;;;;;;6.68;4.18;;;26.10;99.90;;;;;;5033404;28;20110;-58
2022/06/03 08:42:04;;;;;;;5.75;3.85;;;25.90;99.90;;;;;;5033519;28;20490;-58
2022/06/03 08:44:46;;;;;;;7.15;3.88;;;25.70;99.90;;;;;;5033210;28;20490;-58
2022/06/03 08:47:35;;;;;;;4.88;3.95;;;25.50;99.90;;;;;;5018524;28;20028;-58
2022/06/03 08:50:21;;;;;;;6.07;4.18;;;25.50;99.90;;;;;;5033861;28;20041;-58
2022/06/03 08:53:16;;;;;;;5.03;3.47;;;25.50;99.90;;;;;;5030515;28;20502;-58
2022/06/03 08:55:46;;;;;;;7.35;4.22;;;25.40;99.90;;;;;;5030138;28;20060;-58
2022/06/03 08:58:18;;;;;;;8.00;4.80;;;25.30;99.90;;;;;;5032898;28;20433;-58
2022/06/03 09:01:12;;;;;;;4.55;3.67;;;25.30;99.90;;;;;;5033077;28;20112;-58
2022/06/03 09:04:02;;;;;;;5.38;4.47;;;25.00;99.90;;;;;;5032465;28;20087;-58
2022/06/03 09:06:48;;;;;;;7.00;4.32;;;25.00;99.90;;;;;;5033040;28;20038;-58
2022/06/03 09:09:23;;;;;;;5.72;3.92;;;24.80;99.90;;;;;;5032907;28;20129;-58
2022/06/03 09:12:09;;;;;;;6.45;3.97;;;24.80;99.90;;;;;;5032458;28;20091;-58
2022/06/03 09:14:35;;;;;;;6.93;4.38;;;24.70;99.90;;;;;;5033082;28;20021;-58
2022/06/03 09:17:23;;;;;;;7.05;4.20;;;24.70;99.90;;;;;;5031842;28;20041;-58
2022/06/03 09:19:51;;;;;;;6.90;4.32;;;24.70;99.90;;;;;;5030858;28;20199;-58
2022/06/03 09:22:23;;;;;;;8.65;4.43;;;24.60;99.90;;;;;;5034002;28;20118;-58
2022/06/03 09:24:49;;;;;;;4.70;3.95;;;24.70;99.90;;;;;;5032598;28;20075;-58
2022/06/03 09:27:20;;;;;;;6.40;3.90;;;24.70;99.90;;;;;;5032380;28;20080;-59
2022/06/03 09:29:54;;;;;;;7.80;4.30;;;24.60;99.90;;;;;;5032773;28;20429;-58
2022/06/03 09:32:23;;;;;;;8.05;4.38;;;24.60;99.90;;;;;;5032711;28;20051;-59
2022/06/03 09:34:53;;;;;;;9.00;4.43;;;24.80;99.90;;;;;;5032649;28;20084;-59
2022/06/03 09:37:24;;;;;;;12.30;5.13;;;24.80;99.90;;;;;;5033226;28;20486;-58
2022/06/03 09:39:52;;;;;;;8.70;4.75;;;25.00;99.90;;;;;;5028581;28;20051;-59
2022/06/03 09:42:20;;;;;;;13.07;5.53;;;25.10;99.90;;;;;;5032148;28;20386;-58
2022/06/03 09:44:49;;;;;;;18.58;5.45;;;25.10;99.90;;;;;;5032254;28;20034;-59
2022/06/03 09:47:18;;;;;;;14.10;5.47;;;25.20;99.90;;;;;;5032649;28;20067;-58
2022/06/03 09:49:51;;;;;;;17.25;5.63;;;25.30;99.90;;;;;;5031322;28;20609;-58
2022/06/03 09:52:21;;;;;;;10.00;4.60;;;25.30;99.90;;;;;;5030953;28;20034;-58
2022/06/03 09:54:47;;;;;;;8.77;4.70;;;25.00;99.90;;;;;;5032732;28;20044;-58
2022/06/03 09:57:34;;;;;;;8.30;4.50;;;24.80;99.90;;;;;;5031746;28;20030;-58
2022/06/03 10:00:08;;;;;;;10.95;5.03;;;24.80;99.90;;;;;;5032101;28;20017;-59
2022/06/03 10:02:35;;;;;;;18.38;6.03;;;25.00;99.90;;;;;;5031995;28;20044;-58
2022/06/03 10:05:06;;;;;;;12.52;5.35;;;25.10;99.90;;;;;;5031883;28;20156;-58
2022/06/03 10:07:33;;;;;;;10.50;4.97;;;24.90;99.90;;;;;;5032682;28;20030;-58
2022/06/03 10:12:49;;;;;;;15.05;5.05;;;25.10;99.90;;;;;;5032022;28;20052;-58
2022/06/03 10:15:43;;;;;;;18.05;5.68;;;25.20;99.90;;;;;;5031822;28;20029;-58
2022/06/03 10:18:18;;;;;;;12.45;4.63;;;25.30;99.90;;;;;;5032003;28;20034;-59
2022/06/03 10:20:44;;;;;;;17.33;5.80;;;25.20;99.90;;;;;;5031574;28;20049;-58
2022/06/03 10:23:11;;;;;;;11.05;5.10;;;25.50;99.90;;;;;;5029779;28;20025;-58
2022/06/03 10:25:39;;;;;;;9.68;5.15;;;25.50;99.90;;;;;;5028059;28;20029;-58
2022/06/03 10:28:07;;;;;;;11.15;4.90;;;25.30;99.90;;;;;;5031651;28;20038;-58
2022/06/03 10:30:35;;;;;;;16.25;5.88;;;25.40;99.90;;;;;;5031529;28;20409;-58
2022/06/03 10:33:03;;;;;;;12.48;5.25;;;25.70;99.90;;;;;;5031778;28;20038;-59
2022/06/03 10:35:34;;;;;;;12.02;4.75;;;25.90;99.90;;;;;;5031738;28;20040;-58
2022/06/03 10:38:03;;;;;;;16.40;5.65;;;25.60;99.90;;;;;;5031323;28;20025;-58
2022/06/03 10:40:30;;;;;;;12.95;5.25;;;25.60;99.90;;;;;;5031645;28;20072;-58
2022/06/03 10:42:59;;;;;;;13.57;4.72;;;25.80;99.90;;;;;;5031263;28;20049;-58
2022/06/03 10:45:36;;;;;;;12.93;5.30;;;25.90;99.90;;;;;;5031346;28;20049;-58
2022/06/03 10:48:23;;;;;;;10.15;4.63;;;25.70;99.90;;;;;;5031446;28;20022;-58
2022/06/03 10:50:49;;;;;;;14.55;5.05;;;25.70;99.90;;;;;;5031115;28;20486;-59
2022/06/03 11:01:56;;;;;;;14.55;5.75;;;25.50;99.90;;;;;;5029361;28;20079;-58
2022/06/03 11:04:30;;;;;;;17.20;6.03;;;25.80;99.90;;;;;;5029843;28;20025;-59
2022/06/03 11:07:01;;;;;;;12.02;5.30;;;25.80;99.90;;;;;;5031234;28;20033;-59
2022/06/03 11:09:27;;;;;;;11.68;5.53;;;26.00;99.90;;;;;;5030216;28;20036;-59
2022/06/03 11:12:02;;;;;;;14.88;5.40;;;26.20;99.90;;;;;;5031522;28;20040;-58
2022/06/03 11:14:39;;;;;;;11.90;4.88;;;26.30;99.90;;;;;;5030999;28;20032;-59
2022/06/03 11:17:30;;;;;;;12.55;5.07;;;26.50;99.90;;;;;;5030812;28;20554;-59
2022/06/03 11:19:56;;;;;;;12.10;5.13;;;26.50;99.90;;;;;;5026771;28;20037;-58
2022/06/03 11:22:35;;;;;;;11.57;5.20;;;26.60;99.90;;;;;;5031388;28;20052;-58
2022/06/03 11:25:20;;;;;;;12.35;5.28;;;26.40;99.90;;;;;;5030926;28;20036;-58
2022/06/03 11:28:22;;;;;;;12.05;4.75;;;26.20;99.90;;;;;;5034753;28;20079;-58
2022/06/03 11:31:13;;;;;;;9.88;5.05;;;26.50;99.90;;;;;;5021143;28;20042;-58
2022/06/03 11:33:45;;;;;;;11.88;4.60;;;26.50;99.90;;;;;;5018859;28;20201;-58
2022/06/03 11:36:11;;;;;;;9.75;4.78;;;26.60;99.90;;;;;;5002185;28;20036;-58
2022/06/03 11:38:51;;;;;;;10.57;4.53;;;26.40;99.90;;;;;;5017358;28;20041;-58
2022/06/03 11:41:21;;;;;;;6.95;4.22;;;26.50;99.90;;;;;;5030325;28;20487;-58
2022/06/03 11:43:56;;;;;;;7.80;4.38;;;26.60;99.90;;;;;;5016693;28;20101;-58
2022/06/03 11:46:34;;;;;;;8.27;4.20;;;26.40;99.90;;;;;;5031276;28;20541;-58
2022/06/03 11:49:01;;;;;;;8.77;4.30;;;26.50;99.90;;;;;;5019127;28;20029;-58
2022/06/03 11:51:27;;;;;;;7.22;3.97;;;26.60;99.90;;;;;;5020608;28;20045;-59
2022/06/03 11:53:53;;;;;;;8.05;4.40;;;26.50;99.90;;;;;;5026874;28;20033;-59
2022/06/03 11:56:28;;;;;;;10.90;4.57;;;26.60;99.90;;;;;;5030661;28;20053;-58
2022/06/03 11:59:09;;;;;;;8.80;4.45;;;26.70;99.90;;;;;;5029479;28;20525;-58
2022/06/03 12:01:50;;;;;;;7.43;3.97;;;27.10;99.90;;;;;;5017697;28;20116;-58
2022/06/03 12:04:40;;;;;;;7.95;3.53;;;27.40;99.90;;;;;;5013193;28;20415;-58
2022/06/03 12:07:11;;;;;;;8.48;3.85;;;27.70;99.90;;;;;;5034124;28;20017;-58
2022/06/03 12:09:37;;;;;;;6.78;4.20;;;27.70;99.90;;;;;;5034264;28;20037;-58
2022/06/03 12:15:38;;;;;;;8.35;3.80;;;27.20;99.90;;;;;;5034482;28;20448;-58
2022/06/03 12:18:06;;;;;;;10.18;4.15;;;27.20;99.90;;;;;;5026477;28;20040;-57
2022/06/03 12:20:32;;;;;;;7.40;4.15;;;27.30;99.90;;;;;;5016378;28;20037;-58
2022/06/03 12:23:18;;;;;;;7.53;4.35;;;27.20;99.90;;;;;;5015208;28;20041;-58
2022/06/03 12:25:51;;;;;;;6.97;3.97;;;27.10;99.90;;;;;;5028841;28;20052;-58
2022/06/03 12:28:20;;;;;;;;;;;27.00;99.90;;;;;;5017986;28;20053;-58
2022/06/03 12:30:53;;;;;;;6.05;3.80;;;27.30;99.90;;;;;;5018364;28;19905;-58
2022/06/03 12:33:34;;;;;;;7.88;4.05;;;27.30;99.90;;;;;;5018031;28;20049;-58
2022/06/03 12:36:27;;;;;;;7.40;4.07;;;27.50;99.90;;;;;;5017504;28;20482;-58
2022/06/03 12:39:08;;;;;;;7.72;3.80;;;27.20;99.90;;;;;;5016819;28;20099;-59
2022/06/03 12:41:46;;;;;;;7.28;3.78;;;27.20;99.90;;;;;;5000449;28;20402;-59
2022/06/03 12:44:36;;;;;;;5.57;3.97;;;27.30;99.90;;;;;;5030649;28;20046;-58
2022/06/03 12:47:35;;;;;;;6.45;3.55;;;27.10;99.90;;;;;;5030121;28;20223;-58
2022/06/03 12:50:04;;;;;;;4.00;3.55;;;27.00;99.90;;;;;;5029884;28;20037;-58
2022/06/03 12:52:30;;;;;;;7.10;3.75;;;27.00;99.90;;;;;;5000509;28;20041;-58
2022/06/03 12:55:00;;;;;;;6.10;4.07;;;27.20;99.90;;;;;;5024204;28;20037;-58
2022/06/03 12:57:38;;;;;;;6.13;3.80;;;27.20;99.90;;;;;;5033337;28;20033;-58
2022/06/03 13:00:12;;;;;;;7.93;3.83;;;26.70;99.90;;;;;;5033220;28;20049;-57
2022/06/03 13:02:58;;;;;;;7.07;3.83;;;26.70;99.90;;;;;;5033494;28;20052;-58
2022/06/03 13:05:46;;;;;;;8.20;3.80;;;27.00;99.90;;;;;;5018949;28;20034;-57
2022/06/03 13:08:34;;;;;;;8.50;3.92;;;26.90;99.90;;;;;;5017863;28;20041;-58
2022/06/03 13:11:19;;;;;;;7.83;4.27;;;26.80;99.90;;;;;;5031942;28;20460;-58
2022/06/03 13:13:50;;;;;;;7.25;3.80;;;27.00;99.90;;;;;;5029957;28;20226;-58
2022/06/03 13:16:22;;;;;;;8.30;3.67;;;27.40;99.90;;;;;;5032676;28;20029;-58
2022/06/03 13:18:48;;;;;;;5.72;3.70;;;26.90;99.90;;;;;;5032706;28;20029;-58
2022/06/03 13:21:22;;;;;;;8.13;3.72;;;27.10;99.90;;;;;;5032649;28;20120;-58
2022/06/03 13:23:51;;;;;;;7.10;3.90;;;27.20;99.90;;;;;;5032758;28;20125;-58
2022/06/03 13:26:20;;;;;;;5.60;3.60;;;27.40;99.90;;;;;;5033284;28;20410;-58
2022/06/03 13:28:48;;;;;;;5.72;3.75;;;27.30;99.90;;;;;;5032931;28;20021;-58
2022/06/03 13:31:22;;;;;;;7.15;3.90;;;27.20;99.90;;;;;;5032218;28;20026;-58
2022/06/03 13:34:08;;;;;;;9.02;4.03;;;27.00;99.90;;;;;;5032273;28;20116;-58
2022/06/03 13:36:36;;;;;;;5.07;3.28;;;27.00;99.90;;;;;;5032829;28;20045;-58
2022/06/03 13:39:03;;;;;;;7.40;3.78;;;27.10;99.90;;;;;;5032294;28;20175;-58
2022/06/03 13:44:43;;;;;;;5.78;3.35;;;27.20;99.90;;;;;;5019001;28;20040;-58
2022/06/03 13:47:15;;;;;;;6.25;3.80;;;27.00;99.90;;;;;;5032107;28;20121;-58
2022/06/03 13:49:53;;;;;;;8.00;3.63;;;27.10;99.90;;;;;;5029167;28;20360;-57
2022/06/03 13:52:28;;;;;;;5.28;3.25;;;27.20;99.90;;;;;;5032365;28;20061;-58
2022/06/03 13:55:20;;;;;;;5.32;3.80;;;27.20;99.90;;;;;;5032581;28;20064;-58
2022/06/03 13:57:58;;;;;;;5.45;3.95;;;26.80;99.90;;;;;;5032622;28;20033;-58
2022/06/03 14:00:50;;;;;;;8.32;3.35;;;26.90;99.90;;;;;;5031694;28;20025;-58
2022/06/03 14:03:41;;;;;;;7.00;3.28;;;26.90;99.90;;;;;;5031863;28;20041;-58
2022/06/03 14:06:20;;;;;;;6.25;3.85;;;26.90;99.90;;;;;;5031870;28;20029;-58
2022/06/03 14:09:05;;;;;;;6.53;3.50;;;26.90;99.90;;;;;;5031906;28;20478;-58
2022/06/03 14:11:36;;;;;;;6.22;3.50;;;27.10;99.90;;;;;;5032164;28;20140;-58
2022/06/03 14:14:21;;;;;;;4.95;3.35;;;27.30;99.90;;;;;;5031838;28;20068;-58
2022/06/03 14:17:10;;;;;;;6.93;3.13;;;27.50;99.90;;;;;;5044017;28;20040;-58
2022/06/03 14:19:35;;;;;;;7.47;3.78;;;27.50;99.90;;;;;;5032296;28;20045;-57
2022/06/03 14:22:31;;;;;;;4.80;3.30;;;27.30;99.90;;;;;;5031660;28;20395;-58
2022/06/03 14:25:10;;;;;;;3.60;3.08;;;27.30;99.90;;;;;;5029926;28;20422;-58